createdAt,value
2018-02-18T00:00:32.237Z,0
2018-02-18T00:01:41.061Z,0
2018-02-18T00:02:49.924Z,0
2018-02-18T00:03:58.711Z,0
2018-02-18T00:05:07.864Z,0
2018-02-18T00:06:16.686Z,0
2018-02-18T00:07:25.578Z,0
2018-02-18T00:08:34.334Z,0
2018-02-18T00:09:43.184Z,0
2018-02-18T00:10:52.295Z,0
2018-02-18T00:12:01.119Z,0
2018-02-18T00:13:09.941Z,0
2018-02-18T00:14:18.773Z,0
2018-02-18T00:15:27.592Z,0
2018-02-18T00:16:36.714Z,0
2018-02-18T00:17:45.541Z,0
2018-02-18T00:18:54.360Z,0
2018-02-18T00:20:03.186Z,0
2018-02-18T00:21:12.010Z,0
2018-02-18T00:22:20.831Z,0
2018-02-18T00:23:29.658Z,0
2018-02-18T00:24:38.481Z,0
2018-02-18T00:25:47.304Z,0
2018-02-18T00:26:56.128Z,0
2018-02-18T00:28:05.380Z,0
2018-02-18T00:29:14.208Z,0
2018-02-18T00:30:23.027Z,0
2018-02-18T00:31:31.851Z,0
2018-02-18T00:32:40.676Z,0
2018-02-18T00:33:49.651Z,0
2018-02-18T00:34:58.475Z,0
2018-02-18T00:36:07.296Z,0
2018-02-18T00:37:16.118Z,0
2018-02-18T00:38:24.945Z,0
2018-02-18T00:39:33.772Z,0
2018-02-18T00:40:42.596Z,0
2018-02-18T00:41:51.419Z,0
2018-02-18T00:43:00.243Z,0
2018-02-18T00:44:09.070Z,0
2018-02-18T00:45:18.269Z,0
2018-02-18T00:46:27.093Z,0
2018-02-18T00:47:35.921Z,0
2018-02-18T00:48:44.741Z,0
2018-02-18T00:49:53.562Z,0
2018-02-18T00:51:02.684Z,0
2018-02-18T00:52:11.786Z,0
2018-02-18T00:53:20.610Z,0
2018-02-18T00:54:29.435Z,0
2018-02-18T00:55:38.259Z,0
2018-02-18T00:56:47.232Z,0
2018-02-18T00:57:56.059Z,0
2018-02-18T00:59:04.883Z,0
2018-02-18T01:00:13.707Z,0
2018-02-18T01:01:22.531Z,0
2018-02-18T01:02:31.783Z,0
2018-02-18T01:03:40.605Z,0
2018-02-18T01:04:49.431Z,0
2018-02-18T01:05:58.253Z,0
2018-02-18T01:07:07.077Z,0
2018-02-18T01:08:16.228Z,0
2018-02-18T01:09:25.330Z,0
2018-02-18T01:10:34.155Z,0
2018-02-18T01:11:42.977Z,0
2018-02-18T01:12:51.801Z,0
2018-02-18T01:14:00.624Z,0
2018-02-18T01:15:09.447Z,0
2018-02-18T01:16:18.269Z,0
2018-02-18T01:17:27.094Z,0
2018-02-18T01:18:35.921Z,0
2018-02-18T01:19:44.740Z,0
2018-02-18T01:20:53.563Z,0
2018-02-18T01:22:02.387Z,0
2018-02-18T01:23:11.209Z,0
2018-02-18T01:24:20.034Z,0
2018-02-18T01:25:29.156Z,0
2018-02-18T01:26:37.983Z,0
2018-02-18T01:27:46.810Z,0
2018-02-18T01:28:55.633Z,0
2018-02-18T01:30:04.454Z,0
2018-02-18T01:31:13.577Z,0
2018-02-18T01:32:22.400Z,0
2018-02-18T01:33:31.222Z,0
2018-02-18T01:34:40.047Z,0
2018-02-18T01:35:49.151Z,0
2018-02-18T01:36:57.974Z,0
2018-02-18T01:38:06.800Z,0
2018-02-18T01:39:15.624Z,0
2018-02-18T01:40:24.446Z,0
2018-02-18T01:41:33.271Z,0
2018-02-18T01:42:42.246Z,0
2018-02-18T01:43:51.072Z,0
2018-02-18T01:44:59.899Z,0
2018-02-18T01:46:09.000Z,0
2018-02-18T01:47:17.822Z,0
2018-02-18T01:48:26.746Z,0
2018-02-18T01:49:35.567Z,0
2018-02-18T01:50:44.672Z,0
2018-02-18T01:51:53.778Z,0
2018-02-18T01:53:02.602Z,0
2018-02-18T01:54:11.426Z,0
2018-02-18T01:55:20.250Z,0
2018-02-18T01:56:29.075Z,0
2018-02-18T01:57:37.900Z,0
2018-02-18T01:58:46.725Z,0
2018-02-18T01:59:55.698Z,0
2018-02-18T02:01:04.798Z,0
2018-02-18T02:02:13.620Z,0
2018-02-18T02:03:22.443Z,0
2018-02-18T02:04:31.266Z,0
2018-02-18T02:05:40.364Z,0
2018-02-18T02:06:49.188Z,0
2018-02-18T02:07:58.015Z,0
2018-02-18T02:09:06.839Z,0
2018-02-18T02:10:15.664Z,0
2018-02-18T02:11:24.490Z,0
2018-02-18T02:12:33.309Z,0
2018-02-18T02:13:42.134Z,0
2018-02-18T02:14:50.959Z,0
2018-02-18T02:15:59.783Z,0
2018-02-18T02:17:08.708Z,0
2018-02-18T02:18:17.530Z,0
2018-02-18T02:19:26.381Z,0
2018-02-18T02:20:35.178Z,0
2018-02-18T02:21:44.002Z,0
2018-02-18T02:22:52.874Z,0
2018-02-18T02:24:01.697Z,0
2018-02-18T02:25:10.796Z,0
2018-02-18T02:26:19.619Z,0
2018-02-18T02:27:28.717Z,0
2018-02-18T02:28:37.540Z,0
2018-02-18T02:29:46.366Z,0
2018-02-18T02:30:55.187Z,0
2018-02-18T02:32:04.012Z,0
2018-02-18T02:33:12.837Z,0
2018-02-18T02:34:21.809Z,0
2018-02-18T02:35:30.635Z,0
2018-02-18T02:36:39.462Z,0
2018-02-18T02:37:48.565Z,0
2018-02-18T02:38:57.391Z,0
2018-02-18T02:40:06.517Z,0
2018-02-18T02:41:15.340Z,0
2018-02-18T02:42:24.445Z,0
2018-02-18T02:43:33.552Z,0
2018-02-18T02:44:42.377Z,0
2018-02-18T02:45:51.302Z,0
2018-02-18T02:47:00.398Z,0
2018-02-18T02:48:09.228Z,0
2018-02-18T02:49:18.050Z,0
2018-02-18T02:50:27.154Z,0
2018-02-18T02:51:36.125Z,0
2018-02-18T02:52:44.948Z,0
2018-02-18T02:53:53.771Z,0
2018-02-18T02:55:02.596Z,0
2018-02-18T02:56:11.695Z,0
2018-02-18T02:57:20.633Z,0
2018-02-18T02:58:29.440Z,0
2018-02-18T02:59:38.538Z,0
2018-02-18T03:00:47.362Z,0
2018-02-18T03:01:56.186Z,0
2018-02-18T03:03:05.109Z,0
2018-02-18T03:04:13.932Z,0
2018-02-18T03:05:22.754Z,0
2018-02-18T03:06:31.587Z,0
2018-02-18T03:07:40.413Z,0
2018-02-18T03:08:49.387Z,0
2018-02-18T03:09:58.208Z,0
2018-02-18T03:11:07.036Z,0
2018-02-18T03:12:15.860Z,0
2018-02-18T03:13:24.966Z,0
2018-02-18T03:14:34.365Z,0
2018-02-18T03:15:43.190Z,0
2018-02-18T03:16:52.015Z,0
2018-02-18T03:18:01.112Z,0
2018-02-18T03:19:09.939Z,0
2018-02-18T03:20:18.914Z,0
2018-02-18T03:21:27.737Z,0
2018-02-18T03:22:36.560Z,0
2018-02-18T03:23:45.382Z,0
2018-02-18T03:24:54.207Z,0
2018-02-18T03:26:03.030Z,0
2018-02-18T03:27:11.853Z,0
2018-02-18T03:28:20.954Z,0
2018-02-18T03:29:29.780Z,0
2018-02-18T03:30:38.610Z,0
2018-02-18T03:31:47.715Z,0
2018-02-18T03:32:56.539Z,0
2018-02-18T03:34:05.641Z,0
2018-02-18T03:35:14.736Z,0
2018-02-18T03:36:23.558Z,0
2018-02-18T03:37:32.382Z,0
2018-02-18T03:38:41.203Z,0
2018-02-18T03:39:50.026Z,0
2018-02-18T03:40:58.849Z,0
2018-02-18T03:42:07.950Z,0
2018-02-18T03:43:16.924Z,0
2018-02-18T03:44:25.746Z,0
2018-02-18T03:45:34.578Z,0
2018-02-18T03:46:43.403Z,0
2018-02-18T03:47:52.226Z,0
2018-02-18T03:49:01.199Z,0
2018-02-18T03:50:10.023Z,0
2018-02-18T03:51:18.845Z,0
2018-02-18T03:52:27.666Z,0
2018-02-18T03:53:36.491Z,0
2018-02-18T03:54:45.312Z,0
2018-02-18T03:55:54.141Z,0
2018-02-18T03:57:02.961Z,0
2018-02-18T03:58:11.786Z,0
2018-02-18T03:59:20.612Z,0
2018-02-18T04:00:29.784Z,0
2018-02-18T04:01:38.881Z,0
2018-02-18T04:02:47.703Z,0
2018-02-18T04:03:56.525Z,0
2018-02-18T04:05:05.629Z,0
2018-02-18T04:06:14.751Z,0
2018-02-18T04:07:23.574Z,0
2018-02-18T04:08:32.398Z,0
2018-02-18T04:09:41.222Z,0
2018-02-18T04:10:50.043Z,0
2018-02-18T04:11:58.917Z,0
2018-02-18T04:13:07.740Z,0
2018-02-18T04:14:16.561Z,0
2018-02-18T04:15:25.384Z,0
2018-02-18T04:16:34.208Z,0
2018-02-18T04:17:43.182Z,0
2018-02-18T04:18:52.281Z,0
2018-02-18T04:20:01.107Z,0
2018-02-18T04:21:09.927Z,0
2018-02-18T04:22:18.752Z,0
2018-02-18T04:23:27.574Z,0
2018-02-18T04:24:36.401Z,0
2018-02-18T04:25:45.223Z,0
2018-02-18T04:26:54.323Z,0
2018-02-18T04:28:03.145Z,0
2018-02-18T04:29:12.066Z,0
2018-02-18T04:30:20.891Z,0
2018-02-18T04:31:29.712Z,0
2018-02-18T04:32:38.533Z,0
2018-02-18T04:33:47.634Z,0
2018-02-18T04:34:56.555Z,0
2018-02-18T04:36:05.379Z,0
2018-02-18T04:37:14.203Z,0
2018-02-18T04:38:23.025Z,0
2018-02-18T04:39:31.848Z,0
2018-02-18T04:40:40.772Z,0
2018-02-18T04:41:49.595Z,0
2018-02-18T04:42:58.418Z,0
2018-02-18T04:44:07.241Z,0
2018-02-18T04:45:16.060Z,0
2018-02-18T04:46:24.883Z,0
2018-02-18T04:47:33.981Z,0
2018-02-18T04:48:43.082Z,0
2018-02-18T04:49:51.903Z,0
2018-02-18T04:51:00.726Z,0
2018-02-18T04:52:09.950Z,0
2018-02-18T04:53:18.773Z,0
2018-02-18T04:54:27.598Z,0
2018-02-18T04:55:36.419Z,0
2018-02-18T04:56:45.244Z,0
2018-02-18T04:57:54.067Z,0
2018-02-18T04:59:02.887Z,0
2018-02-18T05:00:11.711Z,0
2018-02-18T05:01:20.535Z,0
2018-02-18T05:02:29.355Z,0
2018-02-18T05:03:38.176Z,0
2018-02-18T05:04:47.000Z,0
2018-02-18T05:05:55.822Z,0
2018-02-18T05:07:04.646Z,0
2018-02-18T05:08:13.470Z,0
2018-02-18T05:09:22.592Z,0
2018-02-18T05:10:31.698Z,0
2018-02-18T05:11:40.518Z,0
2018-02-18T05:12:49.341Z,0
2018-02-18T05:13:58.444Z,0
2018-02-18T05:15:07.547Z,0
2018-02-18T05:16:16.370Z,0
2018-02-18T05:17:25.475Z,0
2018-02-18T05:18:34.295Z,0
2018-02-18T05:19:43.118Z,0
2018-02-18T05:20:52.088Z,0
2018-02-18T05:22:01.200Z,0
2018-02-18T05:23:10.018Z,0
2018-02-18T05:24:18.835Z,0
2018-02-18T05:25:27.658Z,0
2018-02-18T05:26:36.531Z,0
2018-02-18T05:27:45.354Z,0
2018-02-18T05:28:54.186Z,0
2018-02-18T05:30:03.286Z,0
2018-02-18T05:31:12.106Z,0
2018-02-18T05:32:20.929Z,0
2018-02-18T05:33:29.751Z,0
2018-02-18T05:34:38.576Z,0
2018-02-18T05:35:47.403Z,0
2018-02-18T05:36:56.223Z,0
2018-02-18T05:38:05.297Z,0
2018-02-18T05:39:14.118Z,0
2018-02-18T05:40:22.941Z,0
2018-02-18T05:41:31.764Z,0
2018-02-18T05:42:40.588Z,0
2018-02-18T05:43:49.512Z,0
2018-02-18T05:44:58.332Z,0
2018-02-18T05:46:07.155Z,0
2018-02-18T05:47:15.981Z,0
2018-02-18T05:48:24.807Z,0
2018-02-18T05:49:33.628Z,0
2018-02-18T05:50:42.448Z,0
2018-02-18T05:51:51.271Z,0
2018-02-18T05:53:00.094Z,0
2018-02-18T05:54:08.913Z,0
2018-02-18T05:55:18.311Z,0
2018-02-18T05:56:27.135Z,0
2018-02-18T05:57:36.232Z,0
2018-02-18T05:58:45.338Z,0
2018-02-18T05:59:54.159Z,0
2018-02-18T06:01:03.083Z,0
2018-02-18T06:02:11.906Z,0
2018-02-18T06:03:20.728Z,0
2018-02-18T06:04:29.549Z,0
2018-02-18T06:05:38.372Z,0
2018-02-18T06:06:47.494Z,0
2018-02-18T06:07:56.317Z,0
2018-02-18T06:09:05.140Z,0
2018-02-18T06:10:13.968Z,0
2018-02-18T06:11:23.066Z,0
2018-02-18T06:12:32.500Z,0
2018-02-18T06:13:41.606Z,0
2018-02-18T06:14:50.476Z,0
2018-02-18T06:15:59.852Z,0
2018-02-18T06:17:08.717Z,0
2018-02-18T06:18:17.935Z,0
2018-02-18T06:19:27.086Z,0
2018-02-18T06:20:36.132Z,0
2018-02-18T06:21:45.194Z,0
2018-02-18T06:22:54.063Z,0
2018-02-18T06:24:03.332Z,0
2018-02-18T06:25:12.184Z,0
2018-02-18T06:26:21.521Z,0
2018-02-18T06:27:31.079Z,5
2018-02-18T06:28:39.943Z,5
2018-02-18T06:29:48.979Z,5
2018-02-18T06:30:57.803Z,5
2018-02-18T06:32:06.625Z,5
2018-02-18T06:33:15.707Z,5
2018-02-18T06:34:24.866Z,5
2018-02-18T06:35:33.897Z,10
2018-02-18T06:36:42.754Z,10
2018-02-18T06:37:51.630Z,10
2018-02-18T06:39:00.656Z,10
2018-02-18T06:40:09.796Z,15
2018-02-18T06:41:18.650Z,15
2018-02-18T06:42:28.052Z,15
2018-02-18T06:43:37.126Z,15
2018-02-18T06:44:45.956Z,20
2018-02-18T06:45:55.056Z,20
2018-02-18T06:47:03.882Z,20
2018-02-18T06:48:12.702Z,25
2018-02-18T06:49:21.527Z,25
2018-02-18T06:50:30.349Z,25
2018-02-18T06:51:39.170Z,30
2018-02-18T06:52:48.144Z,30
2018-02-18T06:53:56.972Z,30
2018-02-18T06:55:06.074Z,35
2018-02-18T06:56:14.896Z,35
2018-02-18T06:57:23.716Z,40
2018-02-18T06:58:32.640Z,40
2018-02-18T06:59:41.462Z,40
2018-02-18T07:00:50.563Z,45
2018-02-18T07:01:59.387Z,45
2018-02-18T07:03:08.212Z,45
2018-02-18T07:04:17.437Z,50
2018-02-18T07:05:26.259Z,50
2018-02-18T07:06:35.362Z,50
2018-02-18T07:07:44.186Z,55
2018-02-18T07:08:53.009Z,55
2018-02-18T07:10:02.132Z,55
2018-02-18T07:11:10.955Z,60
2018-02-18T07:12:19.780Z,60
2018-02-18T07:13:28.875Z,60
2018-02-18T07:14:37.698Z,65
2018-02-18T07:15:46.825Z,65
2018-02-18T07:16:55.647Z,65
2018-02-18T07:18:04.471Z,70
2018-02-18T07:19:13.293Z,70
2018-02-18T07:20:22.667Z,70
2018-02-18T07:21:31.490Z,75
2018-02-18T07:22:40.318Z,75
2018-02-18T07:23:49.141Z,75
2018-02-18T07:24:58.243Z,80
2018-02-18T07:26:07.066Z,80
2018-02-18T07:27:16.046Z,80
2018-02-18T07:28:25.142Z,80
2018-02-18T07:29:34.536Z,80
2018-02-18T07:31:03.920Z,85
2018-02-18T07:32:12.946Z,85
2018-02-18T07:33:21.794Z,85
2018-02-18T07:34:30.636Z,90
2018-02-18T07:35:39.481Z,90
2018-02-18T07:36:48.629Z,90
2018-02-18T07:37:57.794Z,95
2018-02-18T07:39:06.642Z,95
2018-02-18T07:40:15.468Z,95
2018-02-18T07:41:24.391Z,95
2018-02-18T07:42:33.609Z,95
2018-02-18T07:43:42.860Z,95
2018-02-18T07:44:51.957Z,95
2018-02-18T07:46:01.115Z,100
2018-02-18T07:47:10.270Z,100
2018-02-18T07:48:19.646Z,100
2018-02-18T07:49:28.616Z,105
2018-02-18T07:50:38.021Z,105
2018-02-18T07:51:47.173Z,110
2018-02-18T07:52:56.332Z,110
2018-02-18T07:54:05.163Z,110
2018-02-18T07:55:14.506Z,115
2018-02-18T07:56:23.332Z,115
2018-02-18T07:57:32.155Z,115
2018-02-18T07:58:40.980Z,115
2018-02-18T07:59:49.803Z,115
2018-02-18T08:00:58.627Z,115
2018-02-18T08:02:07.452Z,120
2018-02-18T08:03:16.285Z,120
2018-02-18T08:04:25.107Z,120
2018-02-18T08:05:33.931Z,120
2018-02-18T08:06:42.751Z,120
2018-02-18T08:07:51.895Z,120
2018-02-18T08:09:00.719Z,120
2018-02-18T08:10:09.551Z,120
2018-02-18T08:11:18.376Z,120
2018-02-18T08:12:27.501Z,125
2018-02-18T08:13:36.325Z,125
2018-02-18T08:14:45.148Z,125
2018-02-18T08:15:53.973Z,125
2018-02-18T08:17:02.796Z,130
2018-02-18T08:18:11.920Z,130
2018-02-18T08:19:20.746Z,130
2018-02-18T08:20:29.570Z,130
2018-02-18T08:21:38.395Z,135
2018-02-18T08:22:47.219Z,135
2018-02-18T08:23:56.345Z,135
2018-02-18T08:25:05.169Z,135
2018-02-18T08:26:13.994Z,140
2018-02-18T08:27:22.822Z,140
2018-02-18T08:28:31.647Z,140
2018-02-18T08:29:40.624Z,140
2018-02-18T08:30:49.449Z,145
2018-02-18T08:31:58.549Z,145
2018-02-18T08:33:07.377Z,145
2018-02-18T08:34:16.208Z,150
2018-02-18T08:35:25.128Z,150
2018-02-18T08:36:33.951Z,150
2018-02-18T08:37:43.064Z,155
2018-02-18T08:38:51.887Z,155
2018-02-18T08:40:00.713Z,160
2018-02-18T08:41:09.537Z,160
2018-02-18T08:42:18.366Z,165
2018-02-18T08:43:27.191Z,165
2018-02-18T08:44:36.016Z,165
2018-02-18T08:45:44.841Z,170
2018-02-18T08:46:54.096Z,170
2018-02-18T08:48:02.922Z,170
2018-02-18T08:49:11.749Z,170
2018-02-18T08:50:20.573Z,170
2018-02-18T08:51:29.396Z,170
2018-02-18T08:52:38.224Z,170
2018-02-18T08:53:47.046Z,170
2018-02-18T08:54:55.875Z,170
2018-02-18T08:56:05.262Z,170
2018-02-18T08:57:14.103Z,165
2018-02-18T08:58:22.936Z,165
2018-02-18T08:59:31.775Z,160
2018-02-18T09:00:40.610Z,155
2018-02-18T09:01:49.448Z,150
2018-02-18T09:02:58.288Z,150
2018-02-18T09:04:07.217Z,150
2018-02-18T09:05:16.054Z,145
2018-02-18T09:06:24.885Z,145
2018-02-18T09:07:33.986Z,145
2018-02-18T09:08:42.816Z,145
2018-02-18T09:09:51.793Z,150
2018-02-18T09:11:00.618Z,150
2018-02-18T09:12:09.444Z,155
2018-02-18T09:13:18.268Z,155
2018-02-18T09:14:27.102Z,155
2018-02-18T09:15:36.029Z,155
2018-02-18T09:16:44.854Z,160
2018-02-18T09:17:53.684Z,160
2018-02-18T09:19:02.516Z,165
2018-02-18T09:20:11.343Z,170
2018-02-18T09:21:20.474Z,170
2018-02-18T09:22:29.576Z,170
2018-02-18T09:23:38.407Z,175
2018-02-18T09:24:47.515Z,175
2018-02-18T09:25:56.342Z,175
2018-02-18T09:27:05.547Z,175
2018-02-18T09:28:14.705Z,170
2018-02-18T09:29:23.528Z,170
2018-02-18T09:30:32.356Z,165
2018-02-18T09:31:41.460Z,165
2018-02-18T09:32:50.588Z,165
2018-02-18T09:33:59.411Z,165
2018-02-18T09:35:08.241Z,165
2018-02-18T09:36:17.066Z,165
2018-02-18T09:37:25.893Z,170
2018-02-18T09:38:34.721Z,170
2018-02-18T09:39:43.833Z,175
2018-02-18T09:40:52.661Z,175
2018-02-18T09:42:01.491Z,175
2018-02-18T09:43:10.316Z,175
2018-02-18T09:44:19.291Z,175
2018-02-18T09:45:28.119Z,175
2018-02-18T09:46:36.951Z,175
2018-02-18T09:47:45.775Z,175
2018-02-18T09:48:54.602Z,180
2018-02-18T09:50:03.581Z,180
2018-02-18T09:51:12.406Z,175
2018-02-18T09:52:21.238Z,175
2018-02-18T09:53:30.059Z,175
2018-02-18T09:54:38.893Z,175
2018-02-18T09:55:47.721Z,170
2018-02-18T09:56:56.550Z,165
2018-02-18T09:58:05.378Z,170
2018-02-18T09:59:14.205Z,175
2018-02-18T10:00:23.034Z,180
2018-02-18T10:01:31.930Z,185
2018-02-18T10:02:40.757Z,185
2018-02-18T10:03:49.585Z,185
2018-02-18T10:04:58.693Z,185
2018-02-18T10:06:07.534Z,185
2018-02-18T10:07:16.510Z,185
2018-02-18T10:08:25.338Z,185
2018-02-18T10:09:34.166Z,180
2018-02-18T10:10:42.995Z,185
2018-02-18T10:11:51.826Z,185
2018-02-18T10:13:00.803Z,185
2018-02-18T10:14:09.632Z,185
2018-02-18T10:15:18.459Z,185
2018-02-18T10:16:27.291Z,185
2018-02-18T10:17:36.126Z,180
2018-02-18T10:18:44.970Z,185
2018-02-18T10:19:53.803Z,185
2018-02-18T10:21:02.634Z,190
2018-02-18T10:22:11.462Z,185
2018-02-18T10:23:20.290Z,185
2018-02-18T10:24:29.390Z,190
2018-02-18T10:25:38.219Z,195
2018-02-18T10:26:47.050Z,195
2018-02-18T10:27:55.876Z,195
2018-02-18T10:29:04.733Z,195
2018-02-18T10:30:13.560Z,200
2018-02-18T10:31:22.390Z,200
2018-02-18T10:32:31.237Z,200
2018-02-18T10:33:40.066Z,200
2018-02-18T10:34:48.889Z,195
2018-02-18T10:35:57.720Z,200
2018-02-18T10:37:06.550Z,200
2018-02-18T10:38:15.375Z,205
2018-02-18T10:39:24.202Z,205
2018-02-18T10:40:33.034Z,205
2018-02-18T10:41:41.866Z,205
2018-02-18T10:42:50.893Z,205
2018-02-18T10:43:59.723Z,210
2018-02-18T10:45:08.830Z,215
2018-02-18T10:46:17.656Z,215
2018-02-18T10:47:26.484Z,220
2018-02-18T10:48:35.314Z,220
2018-02-18T10:49:44.296Z,225
2018-02-18T10:50:53.127Z,225
2018-02-18T10:52:02.235Z,225
2018-02-18T10:53:11.067Z,225
2018-02-18T10:54:19.923Z,225
2018-02-18T10:55:28.881Z,225
2018-02-18T10:56:37.723Z,225
2018-02-18T10:57:46.553Z,225
2018-02-18T10:58:55.381Z,225
2018-02-18T11:00:04.517Z,230
2018-02-18T11:01:13.726Z,230
2018-02-18T11:02:22.556Z,230
2018-02-18T11:03:31.387Z,230
2018-02-18T11:04:40.220Z,225
2018-02-18T11:05:49.048Z,225
2018-02-18T11:06:58.129Z,220
2018-02-18T11:08:06.959Z,220
2018-02-18T11:09:15.791Z,215
2018-02-18T11:10:24.621Z,215
2018-02-18T11:11:33.743Z,215
2018-02-18T11:12:42.623Z,215
2018-02-18T11:13:51.731Z,220
2018-02-18T11:15:00.559Z,210
2018-02-18T11:16:09.389Z,215
2018-02-18T11:17:18.220Z,215
2018-02-18T11:18:27.253Z,220
2018-02-18T11:19:36.359Z,225
2018-02-18T11:20:45.190Z,230
2018-02-18T11:21:54.018Z,235
2018-02-18T11:23:02.850Z,240
2018-02-18T11:24:11.680Z,240
2018-02-18T11:25:20.791Z,245
2018-02-18T11:26:29.621Z,255
2018-02-18T11:27:38.457Z,260
2018-02-18T11:28:47.293Z,265
2018-02-18T11:29:56.839Z,265
2018-02-18T11:31:05.666Z,270
2018-02-18T11:32:14.496Z,270
2018-02-18T11:33:23.325Z,270
2018-02-18T11:34:32.156Z,265
2018-02-18T11:35:41.264Z,265
2018-02-18T11:36:50.367Z,265
2018-02-18T11:37:59.198Z,260
2018-02-18T11:39:08.027Z,260
2018-02-18T11:40:16.858Z,265
2018-02-18T11:41:25.791Z,270
2018-02-18T11:42:34.622Z,270
2018-02-18T11:43:43.473Z,275
2018-02-18T11:44:52.306Z,275
2018-02-18T11:46:01.135Z,280
2018-02-18T11:47:10.263Z,285
2018-02-18T11:48:19.091Z,280
2018-02-18T11:49:27.923Z,285
2018-02-18T11:50:37.036Z,285
2018-02-18T11:51:45.871Z,290
2018-02-18T11:52:54.701Z,290
2018-02-18T11:54:03.529Z,290
2018-02-18T11:55:12.362Z,290
2018-02-18T11:56:21.192Z,295
2018-02-18T11:57:30.026Z,295
2018-02-18T11:58:38.959Z,295
2018-02-18T11:59:47.788Z,295
2018-02-18T12:00:56.622Z,295
2018-02-18T12:02:05.454Z,300
2018-02-18T12:03:14.284Z,305
2018-02-18T12:04:23.271Z,305
2018-02-18T12:05:32.101Z,315
2018-02-18T12:06:40.936Z,320
2018-02-18T12:07:49.769Z,335
2018-02-18T12:08:58.601Z,340
2018-02-18T12:10:07.864Z,345
2018-02-18T12:11:16.693Z,355
2018-02-18T12:12:25.528Z,355
2018-02-18T12:13:34.636Z,360
2018-02-18T12:14:43.467Z,365
2018-02-18T12:15:52.737Z,370
2018-02-18T12:17:01.569Z,385
2018-02-18T12:18:10.402Z,390
2018-02-18T12:19:19.237Z,395
2018-02-18T12:20:28.070Z,405
2018-02-18T12:21:36.904Z,410
2018-02-18T12:22:45.736Z,410
2018-02-18T12:23:54.572Z,420
2018-02-18T12:25:03.420Z,455
2018-02-18T12:26:12.251Z,455
2018-02-18T12:27:21.086Z,450
2018-02-18T12:28:29.919Z,490
2018-02-18T12:29:38.759Z,500
2018-02-18T12:30:47.865Z,540
2018-02-18T12:31:56.698Z,570
2018-02-18T12:33:05.531Z,655
2018-02-18T12:34:14.392Z,600
2018-02-18T12:35:23.196Z,580
2018-02-18T12:36:32.029Z,590
2018-02-18T12:37:40.861Z,565
2018-02-18T12:38:49.697Z,600
2018-02-18T12:39:58.530Z,505
2018-02-18T12:41:07.363Z,510
2018-02-18T12:42:16.199Z,540
2018-02-18T12:43:25.031Z,505
2018-02-18T12:44:33.870Z,545
2018-02-18T12:45:42.988Z,600
2018-02-18T12:46:52.100Z,505
2018-02-18T12:48:00.933Z,540
2018-02-18T12:49:09.765Z,715
2018-02-18T12:50:18.601Z,520
2018-02-18T12:51:27.432Z,535
2018-02-18T12:52:36.268Z,675
2018-02-18T12:53:45.380Z,615
2018-02-18T12:54:54.314Z,490
2018-02-18T12:56:03.149Z,465
2018-02-18T12:57:11.984Z,420
2018-02-18T12:58:20.817Z,430
2018-02-18T12:59:29.652Z,425
2018-02-18T13:00:38.494Z,435
2018-02-18T13:01:47.475Z,470
2018-02-18T13:02:56.309Z,445
2018-02-18T13:04:05.144Z,460
2018-02-18T13:05:13.979Z,530
2018-02-18T13:06:22.900Z,605
2018-02-18T13:07:32.070Z,675
2018-02-18T13:08:40.947Z,640
2018-02-18T13:09:49.824Z,725
2018-02-18T13:10:58.701Z,775
2018-02-18T13:12:07.553Z,840
2018-02-18T13:13:16.724Z,790
2018-02-18T13:14:25.590Z,775
2018-02-18T13:15:34.453Z,635
2018-02-18T13:16:43.310Z,550
2018-02-18T13:17:52.756Z,520
2018-02-18T13:19:01.732Z,545
2018-02-18T13:20:10.904Z,560
2018-02-18T13:21:19.774Z,560
2018-02-18T13:22:28.949Z,610
2018-02-18T13:23:37.813Z,660
2018-02-18T13:24:46.970Z,745
2018-02-18T13:25:55.836Z,830
2018-02-18T13:27:05.018Z,685
2018-02-18T13:28:13.855Z,600
2018-02-18T13:29:22.998Z,585
2018-02-18T13:30:31.935Z,750
2018-02-18T13:31:40.771Z,715
2018-02-18T13:32:49.605Z,610
2018-02-18T13:33:58.448Z,540
2018-02-18T13:35:07.288Z,475
2018-02-18T13:36:16.128Z,465
2018-02-18T13:37:24.968Z,460
2018-02-18T13:38:33.810Z,450
2018-02-18T13:39:42.660Z,440
2018-02-18T13:40:51.499Z,440
2018-02-18T13:42:00.435Z,445
2018-02-18T13:43:09.548Z,425
2018-02-18T13:44:18.385Z,485
2018-02-18T13:45:27.217Z,610
2018-02-18T13:46:36.053Z,620
2018-02-18T13:47:44.889Z,580
2018-02-18T13:48:54.003Z,420
2018-02-18T13:50:02.839Z,390
2018-02-18T13:51:11.679Z,395
2018-02-18T13:52:20.512Z,400
2018-02-18T13:53:29.496Z,400
2018-02-18T13:54:38.330Z,410
2018-02-18T13:55:47.163Z,415
2018-02-18T13:56:56.003Z,435
2018-02-18T13:58:04.870Z,475
2018-02-18T13:59:13.705Z,430
2018-02-18T14:00:22.553Z,450
2018-02-18T14:01:31.387Z,490
2018-02-18T14:02:40.222Z,540
2018-02-18T14:03:49.058Z,535
2018-02-18T14:04:57.992Z,450
2018-02-18T14:06:06.829Z,435
2018-02-18T14:07:15.664Z,395
2018-02-18T14:08:24.524Z,420
2018-02-18T14:09:33.357Z,390
2018-02-18T14:10:42.295Z,380
2018-02-18T14:11:51.131Z,425
2018-02-18T14:12:59.967Z,475
2018-02-18T14:14:08.805Z,470
2018-02-18T14:15:17.639Z,425
2018-02-18T14:16:26.475Z,405
2018-02-18T14:17:35.311Z,420
2018-02-18T14:18:44.148Z,455
2018-02-18T14:19:52.986Z,500
2018-02-18T14:21:01.821Z,505
2018-02-18T14:22:10.655Z,470
2018-02-18T14:23:19.489Z,455
2018-02-18T14:24:28.322Z,460
2018-02-18T14:25:37.155Z,440
2018-02-18T14:26:46.264Z,410
2018-02-18T14:27:55.099Z,410
2018-02-18T14:29:03.934Z,425
2018-02-18T14:30:12.767Z,425
2018-02-18T14:31:21.604Z,410
2018-02-18T14:32:30.441Z,400
2018-02-18T14:33:39.375Z,405
2018-02-18T14:34:48.209Z,415
2018-02-18T14:35:57.162Z,420
2018-02-18T14:37:06.096Z,370
2018-02-18T14:38:15.130Z,350
2018-02-18T14:39:24.414Z,335
2018-02-18T14:40:33.269Z,340
2018-02-18T14:41:42.106Z,345
2018-02-18T14:42:50.944Z,345
2018-02-18T14:43:59.779Z,335
2018-02-18T14:45:08.915Z,335
2018-02-18T14:46:17.750Z,350
2018-02-18T14:47:26.696Z,350
2018-02-18T14:48:35.534Z,355
2018-02-18T14:49:44.393Z,360
2018-02-18T14:50:53.283Z,365
2018-02-18T14:52:02.121Z,355
2018-02-18T14:53:10.956Z,340
2018-02-18T14:54:19.795Z,345
2018-02-18T14:55:28.914Z,365
2018-02-18T14:56:37.749Z,330
2018-02-18T14:57:46.581Z,285
2018-02-18T14:58:55.799Z,285
2018-02-18T15:00:04.987Z,315
2018-02-18T15:01:13.926Z,275
2018-02-18T15:02:23.076Z,255
2018-02-18T15:03:31.983Z,245
2018-02-18T15:04:40.964Z,250
2018-02-18T15:05:50.081Z,255
2018-02-18T15:06:58.918Z,265
2018-02-18T15:08:07.849Z,280
2018-02-18T15:09:16.686Z,285
2018-02-18T15:10:25.520Z,270
2018-02-18T15:11:34.629Z,265
2018-02-18T15:12:43.463Z,260
2018-02-18T15:13:52.577Z,260
2018-02-18T15:15:01.409Z,255
2018-02-18T15:16:10.243Z,240
2018-02-18T15:17:19.076Z,230
2018-02-18T15:18:27.911Z,225
2018-02-18T15:19:36.749Z,210
2018-02-18T15:20:45.578Z,200
2018-02-18T15:21:54.411Z,200
2018-02-18T15:23:03.245Z,195
2018-02-18T15:24:12.077Z,185
2018-02-18T15:25:20.910Z,185
2018-02-18T15:26:29.744Z,185
2018-02-18T15:27:38.582Z,180
2018-02-18T15:28:47.411Z,175
2018-02-18T15:29:56.245Z,165
2018-02-18T15:31:05.076Z,160
2018-02-18T15:32:14.112Z,155
2018-02-18T15:33:22.945Z,155
2018-02-18T15:34:31.783Z,160
2018-02-18T15:35:40.617Z,155
2018-02-18T15:36:49.449Z,150
2018-02-18T15:37:58.315Z,150
2018-02-18T15:39:07.214Z,160
2018-02-18T15:40:16.332Z,155
2018-02-18T15:41:25.164Z,150
2018-02-18T15:42:33.996Z,145
2018-02-18T15:43:42.834Z,145
2018-02-18T15:44:51.712Z,150
2018-02-18T15:46:00.540Z,150
2018-02-18T15:47:09.373Z,145
2018-02-18T15:48:18.208Z,140
2018-02-18T15:49:27.039Z,135
2018-02-18T15:50:35.925Z,135
2018-02-18T15:51:44.765Z,130
2018-02-18T15:52:53.592Z,130
2018-02-18T15:54:02.426Z,130
2018-02-18T15:55:11.258Z,135
2018-02-18T15:56:20.189Z,125
2018-02-18T15:57:29.026Z,130
2018-02-18T15:58:38.133Z,115
2018-02-18T15:59:46.967Z,130
2018-02-18T16:00:55.802Z,125
2018-02-18T16:02:05.020Z,120
2018-02-18T16:03:13.852Z,115
2018-02-18T16:04:22.959Z,110
2018-02-18T16:05:31.793Z,100
2018-02-18T16:06:40.628Z,90
2018-02-18T16:07:49.510Z,85
2018-02-18T16:08:58.343Z,80
2018-02-18T16:10:07.177Z,80
2018-02-18T16:11:16.010Z,75
2018-02-18T16:12:24.864Z,70
2018-02-18T16:13:33.970Z,70
2018-02-18T16:14:42.814Z,65
2018-02-18T16:15:51.934Z,65
2018-02-18T16:17:00.780Z,65
2018-02-18T16:18:09.628Z,60
2018-02-18T16:19:18.471Z,60